Time;durP1;ratioP1;P1;durP2;ratioP2;P2;SDS_P1;SDS_P2;PMS_P1;PMS_P2;Temp;Humidity;BMP_temperature;BMP_pressure;BME280_temperature;BME280_humidity;BME280_pressure;Samples;Min_cycle;Max_cycle;Signal;HPM_P1;HPM_P2
2021/10/12 00:02:20;;;;;;;40.35;21.00;;;10.00;99.90;;;;;;5097109;28;20472;-89
2021/10/12 00:04:46;;;;;;;44.40;21.80;;;10.00;99.90;;;;;;5096459;28;20130;-89
2021/10/12 00:07:11;;;;;;;46.67;22.33;;;9.90;99.90;;;;;;5097636;28;20074;-90
2021/10/12 00:09:37;;;;;;;46.83;23.27;;;10.00;99.90;;;;;;5096270;28;20024;-90
2021/10/12 00:12:03;;;;;;;44.72;21.60;;;10.00;99.90;;;;;;5096213;28;20031;-90
2021/10/12 00:14:29;;;;;;;40.38;21.73;;;10.00;99.90;;;;;;5095903;28;20028;-89
2021/10/12 00:16:54;;;;;;;45.40;21.30;;;10.00;99.90;;;;;;5096313;28;20491;-89
2021/10/12 00:19:20;;;;;;;44.13;21.63;;;10.00;99.90;;;;;;5096653;28;20024;-83
2021/10/12 00:21:46;;;;;;;40.28;20.58;;;10.00;99.90;;;;;;5110539;28;20032;-91
2021/10/12 00:24:12;;;;;;;42.53;20.35;;;10.00;99.90;;;;;;5116195;28;20054;-91
2021/10/12 00:26:37;;;;;;;42.28;21.95;;;10.00;99.90;;;;;;5116108;28;20034;-93
2021/10/12 00:29:03;;;;;;;45.20;22.58;;;10.00;99.90;;;;;;5117633;28;20024;-93
2021/10/12 00:31:29;;;;;;;48.00;20.80;;;10.00;99.90;;;;;;5115564;28;20024;-93
2021/10/12 00:33:56;;;;;;;45.25;21.85;;;10.00;99.90;;;;;;5116543;28;20031;-93
2021/10/12 00:36:22;;;;;;;46.75;23.20;;;10.00;99.90;;;;;;5115564;28;20164;-87
2021/10/12 00:38:48;;;;;;;45.33;22.50;;;10.00;99.90;;;;;;5115834;28;20481;-93
2021/10/12 00:41:13;;;;;;;44.95;22.25;;;10.00;99.90;;;;;;5115869;28;20027;-95
2021/10/12 00:43:39;;;;;;;42.90;21.75;;;10.00;99.90;;;;;;5114731;28;20024;-93
2021/10/12 00:46:05;;;;;;;41.22;21.25;;;10.00;99.90;;;;;;5115358;28;20476;-95
2021/10/12 00:48:31;;;;;;;45.42;22.55;;;10.00;99.90;;;;;;5094916;28;20028;-94
2021/10/12 00:50:56;;;;;;;51.55;23.13;;;10.00;99.90;;;;;;5096948;28;20020;-93
2021/10/12 00:53:22;;;;;;;42.65;21.58;;;10.00;99.90;;;;;;5095483;28;20525;-88
2021/10/12 00:55:48;;;;;;;44.25;22.27;;;10.00;99.90;;;;;;5095472;28;20031;-93
2021/10/12 00:58:15;;;;;;;49.00;22.77;;;10.00;99.90;;;;;;5114474;28;20047;-93
2021/10/12 01:00:41;;;;;;;49.20;21.67;;;10.00;99.90;;;;;;5116686;28;20027;-94
2021/10/12 01:03:07;;;;;;;46.40;22.88;;;10.00;99.90;;;;;;5115805;28;20052;-93
2021/10/12 01:05:33;;;;;;;50.20;22.92;;;10.00;99.90;;;;;;5115090;28;20038;-93
2021/10/12 01:07:59;;;;;;;46.22;21.83;;;10.00;99.90;;;;;;5116838;28;20038;-91
2021/10/12 01:10:24;;;;;;;46.15;23.08;;;10.00;99.90;;;;;;5096463;28;20110;-84
2021/10/12 01:12:51;;;;;;;41.47;22.58;;;10.00;99.90;;;;;;5095746;28;20114;-90
2021/10/12 01:15:16;;;;;;;45.72;22.13;;;10.00;99.90;;;;;;5096173;28;20506;-90
2021/10/12 01:17:42;;;;;;;47.83;23.58;;;10.00;99.90;;;;;;5094638;28;20036;-91
2021/10/12 01:20:11;;;;;;;49.53;22.60;;;10.00;99.90;;;;;;5094891;28;20035;-95
2021/10/12 01:22:45;;;;;;;46.00;22.83;;;10.10;99.90;;;;;;5096132;28;20028;-95
2021/10/12 01:25:12;;;;;;;51.05;23.30;;;10.10;99.90;;;;;;5096339;28;20027;-95
2021/10/12 01:27:39;;;;;;;51.15;22.60;;;10.10;99.90;;;;;;5094427;28;20028;-95
2021/10/12 01:30:06;;;;;;;49.22;22.95;;;10.10;99.90;;;;;;5094718;28;20111;-91
2021/10/12 01:32:36;;;;;;;43.97;21.48;;;10.10;99.90;;;;;;5094414;28;20020;-89
2021/10/12 01:35:02;;;;;;;47.97;22.13;;;10.10;99.90;;;;;;5094970;28;20032;-90
2021/10/12 01:37:29;;;;;;;47.85;23.77;;;10.10;99.90;;;;;;5111573;28;20043;-87
2021/10/12 01:39:55;;;;;;;49.25;22.52;;;10.10;99.90;;;;;;5115206;28;20448;-91
2021/10/12 01:42:21;;;;;;;44.35;21.60;;;10.10;99.90;;;;;;5115045;28;20047;-92
2021/10/12 01:44:47;;;;;;;45.10;21.83;;;10.10;99.90;;;;;;5114610;28;20146;-92
2021/10/12 01:47:12;;;;;;;41.10;20.95;;;10.20;99.90;;;;;;5115797;28;20114;-92
2021/10/12 01:49:38;;;;;;;47.10;22.00;;;10.20;99.90;;;;;;5114293;28;20023;-92
2021/10/12 01:52:03;;;;;;;42.67;21.40;;;10.10;99.90;;;;;;5114804;28;20057;-91
2021/10/12 01:54:29;;;;;;;44.17;22.52;;;10.10;99.90;;;;;;5113330;28;20476;-86
2021/10/12 01:56:55;;;;;;;45.13;21.60;;;10.20;99.90;;;;;;5113323;28;20048;-91
2021/10/12 01:59:20;;;;;;;42.33;20.70;;;10.20;99.90;;;;;;5113982;28;20526;-91
2021/10/12 02:01:46;;;;;;;45.17;21.85;;;10.20;99.90;;;;;;5115132;28;20106;-91
2021/10/12 02:04:12;;;;;;;43.95;21.35;;;10.20;99.90;;;;;;5114389;28;20031;-90
2021/10/12 02:06:38;;;;;;;39.45;20.05;;;10.20;99.90;;;;;;5096702;28;20028;-90
2021/10/12 02:09:04;;;;;;;45.15;21.88;;;10.20;99.90;;;;;;5095508;28;20032;-91
2021/10/12 02:11:30;;;;;;;44.05;21.92;;;10.20;99.90;;;;;;5095035;28;20027;-89
2021/10/12 02:13:56;;;;;;;46.65;21.20;;;10.20;99.90;;;;;;5094233;28;20020;-91
2021/10/12 02:16:22;;;;;;;45.28;21.08;;;10.20;99.90;;;;;;5095090;28;20551;-91
2021/10/12 02:18:48;;;;;;;45.50;21.10;;;10.20;99.90;;;;;;5110284;28;20024;-90
2021/10/12 02:21:14;;;;;;;41.67;20.33;;;10.20;99.90;;;;;;5115736;28;20081;-91
2021/10/12 02:23:39;;;;;;;45.88;21.77;;;10.20;99.90;;;;;;5113871;28;20028;-91
2021/10/12 02:26:05;;;;;;;46.75;21.83;;;10.20;99.90;;;;;;5108725;28;20081;-90
2021/10/12 02:28:31;;;;;;;43.85;21.27;;;10.20;99.90;;;;;;5093588;28;20028;-87
2021/10/12 02:30:57;;;;;;;45.13;21.20;;;10.20;99.90;;;;;;5094041;28;20070;-92
2021/10/12 02:33:22;;;;;;;45.92;21.20;;;10.20;99.90;;;;;;5095041;28;20415;-92
2021/10/12 02:35:48;;;;;;;45.47;22.20;;;10.20;99.90;;;;;;5093358;28;20036;-92
2021/10/12 02:38:14;;;;;;;44.55;21.80;;;10.20;99.90;;;;;;5093671;28;20024;-94
2021/10/12 02:40:39;;;;;;;43.75;20.70;;;10.20;99.90;;;;;;5094089;28;20112;-93
2021/10/12 02:43:05;;;;;;;54.65;22.17;;;10.20;99.90;;;;;;5093739;28;20031;-91
2021/10/12 02:45:31;;;;;;;48.92;23.33;;;10.20;99.90;;;;;;5093286;28;20457;-86
2021/10/12 02:47:56;;;;;;;49.30;22.80;;;10.20;99.90;;;;;;5093754;28;20028;-90
2021/10/12 02:50:22;;;;;;;45.15;22.20;;;10.20;99.90;;;;;;5093804;28;20429;-91
2021/10/12 02:52:47;;;;;;;48.33;24.73;;;10.20;99.90;;;;;;5092484;28;20020;-90
2021/10/12 02:55:13;;;;;;;47.95;22.23;;;10.10;99.90;;;;;;5093699;28;20034;-90
2021/10/12 02:57:39;;;;;;;50.20;24.17;;;10.10;99.90;;;;;;5093881;28;20053;-90
2021/10/12 03:00:07;;;;;;;48.65;24.73;;;10.20;99.90;;;;;;5094608;28;20066;-90
2021/10/12 03:02:34;;;;;;;49.50;22.65;;;10.10;99.90;;;;;;5093134;28;20055;-88
2021/10/12 03:04:59;;;;;;;46.90;23.02;;;10.20;99.90;;;;;;5093269;28;20474;-89
2021/10/12 03:07:25;;;;;;;48.05;23.67;;;10.20;99.90;;;;;;5093366;28;20049;-89
2021/10/12 03:09:51;;;;;;;51.88;23.75;;;10.20;99.90;;;;;;5093765;28;20016;-89
2021/10/12 03:12:16;;;;;;;49.33;23.15;;;10.20;99.90;;;;;;5094400;28;20358;-89
2021/10/12 03:14:42;;;;;;;44.53;21.83;;;10.20;99.90;;;;;;5093038;28;20088;-89
2021/10/12 03:17:08;;;;;;;44.33;21.50;;;10.20;99.90;;;;;;5093130;28;20032;-89
2021/10/12 03:19:33;;;;;;;41.42;20.58;;;10.20;99.90;;;;;;5093680;28;20441;-86
2021/10/12 03:22:07;;;;;;;47.42;21.88;;;10.20;99.90;;;;;;5092917;28;20043;-90
2021/10/12 03:24:32;;;;;;;48.30;21.48;;;10.10;99.90;;;;;;5094221;28;20024;-83
2021/10/12 03:26:58;;;;;;;46.78;22.80;;;10.10;99.90;;;;;;5092834;28;20111;-90
2021/10/12 03:29:24;;;;;;;47.08;20.48;;;10.10;99.90;;;;;;5092846;28;20028;-92
2021/10/12 03:31:49;;;;;;;39.30;20.00;;;10.10;99.90;;;;;;5092504;28;20024;-91
2021/10/12 03:34:15;;;;;;;44.83;21.00;;;10.00;99.90;;;;;;5094259;28;20036;-88
2021/10/12 03:36:40;;;;;;;41.35;20.30;;;10.00;99.90;;;;;;5092374;28;20432;-88
2021/10/12 03:39:06;;;;;;;39.00;19.08;;;10.00;99.90;;;;;;5093065;28;20032;-88
2021/10/12 03:41:32;;;;;;;45.45;19.67;;;10.00;99.90;;;;;;5092877;28;20054;-86
2021/10/12 03:43:58;;;;;;;44.03;20.63;;;10.00;99.90;;;;;;5094471;28;20031;-96
2021/10/12 03:46:23;;;;;;;46.15;21.67;;;10.00;99.90;;;;;;5093153;28;20024;-96
2021/10/12 03:48:49;;;;;;;39.88;19.88;;;10.00;99.90;;;;;;5091953;28;20028;-96
2021/10/12 03:51:14;;;;;;;46.30;20.05;;;9.90;99.90;;;;;;5093070;28;20025;-96
2021/10/12 03:53:40;;;;;;;41.85;18.75;;;10.00;99.90;;;;;;5092341;28;20430;-95
2021/10/12 03:56:06;;;;;;;42.95;19.80;;;9.90;99.90;;;;;;5092830;28;20028;-95
2021/10/12 03:58:32;;;;;;;45.28;19.70;;;10.00;99.90;;;;;;5093122;28;20052;-95
2021/10/12 04:00:58;;;;;;;40.55;19.00;;;10.00;99.90;;;;;;5093835;28;20028;-94
2021/10/12 04:03:23;;;;;;;38.60;19.27;;;10.00;99.90;;;;;;5092973;28;20368;-95
2021/10/12 04:05:49;;;;;;;41.78;19.45;;;10.00;99.90;;;;;;5092485;28;20032;-96
2021/10/12 04:08:15;;;;;;;39.78;18.95;;;10.00;99.90;;;;;;5092571;28;20024;-95
2021/10/12 04:10:41;;;;;;;40.90;18.75;;;10.00;99.90;;;;;;5093053;28;20103;-95
2021/10/12 04:13:07;;;;;;;36.00;17.63;;;9.90;99.90;;;;;;5092931;28;20032;-95
2021/10/12 04:15:34;;;;;;;37.80;18.58;;;9.90;99.90;;;;;;5092364;28;20028;-95
2021/10/12 04:18:00;;;;;;;36.42;17.45;;;9.90;99.90;;;;;;5095952;28;20105;-94
2021/10/12 04:20:27;;;;;;;39.10;18.30;;;10.00;99.90;;;;;;5096602;28;20411;-94
2021/10/12 04:22:54;;;;;;;35.63;18.55;;;9.90;99.90;;;;;;5095924;28;20039;-96
2021/10/12 04:25:20;;;;;;;37.35;18.45;;;10.00;99.90;;;;;;5096584;28;20470;-86
2021/10/12 04:27:47;;;;;;;37.60;18.20;;;10.00;99.90;;;;;;5096427;28;20103;-86
2021/10/12 04:30:12;;;;;;;37.55;17.80;;;10.00;99.90;;;;;;5096942;28;20028;-87
2021/10/12 04:32:38;;;;;;;39.28;19.00;;;10.00;99.90;;;;;;5095633;28;20024;-83
2021/10/12 04:35:05;;;;;;;41.88;19.35;;;10.00;99.90;;;;;;5095701;28;20031;-89
2021/10/12 04:37:31;;;;;;;40.72;19.08;;;10.10;99.90;;;;;;5095390;28;20040;-88
2021/10/12 04:39:57;;;;;;;40.72;18.88;;;10.10;99.90;;;;;;5097036;28;20616;-90
2021/10/12 04:42:22;;;;;;;39.78;18.92;;;10.00;99.90;;;;;;5096056;28;20028;-91
2021/10/12 04:44:49;;;;;;;38.70;19.00;;;10.00;99.90;;;;;;5095138;28;20036;-90
2021/10/12 04:47:16;;;;;;;39.58;19.42;;;10.10;99.90;;;;;;5096046;28;20027;-93
2021/10/12 04:49:42;;;;;;;34.45;17.33;;;10.00;99.90;;;;;;5096674;28;20043;-92
2021/10/12 04:52:08;;;;;;;36.85;18.77;;;10.10;99.90;;;;;;5096827;28;20069;-93
2021/10/12 04:54:34;;;;;;;37.28;18.88;;;10.10;99.90;;;;;;5095402;28;20028;-93
2021/10/12 04:56:59;;;;;;;42.05;18.10;;;10.10;99.90;;;;;;5095051;28;20160;-91
2021/10/12 04:59:25;;;;;;;44.08;19.35;;;10.10;99.90;;;;;;5095449;28;20530;-94
2021/10/12 05:01:51;;;;;;;44.75;19.25;;;10.10;99.90;;;;;;5095023;28;20024;-94
2021/10/12 05:04:17;;;;;;;36.90;17.88;;;10.00;99.90;;;;;;5095336;28;20024;-90
2021/10/12 05:06:42;;;;;;;39.08;18.30;;;10.00;99.90;;;;;;5096151;28;20032;-90
2021/10/12 05:09:08;;;;;;;38.92;17.73;;;10.10;99.90;;;;;;5095371;28;20028;-88
2021/10/12 05:11:33;;;;;;;36.22;17.23;;;10.10;99.90;;;;;;5096180;28;20024;-92
2021/10/12 05:13:59;;;;;;;37.72;17.20;;;10.10;99.90;;;;;;5094954;28;20024;-94
2021/10/12 05:16:27;;;;;;;35.33;17.42;;;10.10;99.90;;;;;;5095143;28;20031;-92
2021/10/12 05:18:57;;;;;;;36.05;18.90;;;10.10;99.90;;;;;;5094988;28;20028;-89
2021/10/12 05:21:22;;;;;;;38.28;18.63;;;10.10;99.90;;;;;;5095470;28;20128;-90
2021/10/12 05:23:48;;;;;;;41.20;17.80;;;10.10;99.90;;;;;;5094755;28;20180;-89
2021/10/12 05:26:14;;;;;;;38.80;18.52;;;10.00;99.90;;;;;;5095094;28;20066;-96
2021/10/12 05:28:40;;;;;;;38.08;17.67;;;10.10;99.90;;;;;;5093956;28;20032;-88
2021/10/12 05:31:06;;;;;;;38.60;17.42;;;10.10;99.90;;;;;;5097459;28;20055;-91
2021/10/12 05:33:31;;;;;;;41.28;18.40;;;10.10;99.90;;;;;;5095870;28;20130;-90
2021/10/12 05:35:57;;;;;;;39.58;17.88;;;10.10;99.90;;;;;;5095420;28;20443;-91
2021/10/12 05:38:23;;;;;;;39.05;17.42;;;10.10;99.90;;;;;;5095391;28;20524;-91
2021/10/12 05:40:50;;;;;;;37.17;17.42;;;10.10;99.90;;;;;;5093457;28;20122;-88
2021/10/12 05:43:16;;;;;;;37.85;17.67;;;10.10;99.90;;;;;;5095968;28;20020;-89
2021/10/12 05:45:42;;;;;;;38.75;18.33;;;10.10;99.90;;;;;;5094431;28;20055;-84
2021/10/12 05:48:08;;;;;;;38.63;17.15;;;10.10;99.90;;;;;;5094584;28;20508;-88
2021/10/12 05:50:35;;;;;;;37.42;17.20;;;10.10;99.90;;;;;;5095123;28;20123;-92
2021/10/12 05:58:11;;;;;;;33.40;16.83;;;10.00;99.90;;;;;;5101330;28;20046;-91
2021/10/12 06:00:36;;;;;;;35.70;17.20;;;10.00;99.90;;;;;;5115439;28;20491;-92
2021/10/12 06:03:02;;;;;;;38.20;17.92;;;10.00;99.90;;;;;;5114460;28;20035;-91
2021/10/12 06:05:28;;;;;;;32.90;17.15;;;10.00;99.90;;;;;;5096777;28;20032;-91
2021/10/12 06:07:54;;;;;;;38.05;17.65;;;9.90;99.90;;;;;;5093804;28;20036;-92
2021/10/12 06:10:20;;;;;;;37.17;18.02;;;10.00;99.90;;;;;;5094051;28;20031;-91
2021/10/12 06:12:46;;;;;;;36.65;16.50;;;9.90;99.90;;;;;;5095234;28;20024;-91
2021/10/12 06:15:11;;;;;;;37.08;18.20;;;9.90;99.90;;;;;;5095608;28;20035;-91
2021/10/12 06:17:37;;;;;;;37.67;17.10;;;9.90;99.90;;;;;;5094168;28;20131;-89
2021/10/12 06:20:03;;;;;;;35.83;15.90;;;9.90;99.90;;;;;;5093708;28;20510;-88
2021/10/12 06:22:29;;;;;;;35.05;16.92;;;9.90;99.90;;;;;;5093918;28;20039;-88
2021/10/12 06:24:55;;;;;;;37.50;17.27;;;9.90;99.90;;;;;;5093114;28;20024;-87
2021/10/12 06:27:21;;;;;;;37.55;17.55;;;9.90;99.90;;;;;;5093909;28;20056;-88
2021/10/12 06:29:47;;;;;;;40.20;17.50;;;9.90;99.90;;;;;;5093386;28;20026;-87
2021/10/12 06:32:12;;;;;;;36.35;16.77;;;9.90;99.90;;;;;;5093183;28;20039;-87
2021/10/12 06:34:38;;;;;;;34.90;17.00;;;9.90;99.90;;;;;;5094112;28;20024;-90
2021/10/12 06:37:04;;;;;;;34.35;17.08;;;9.90;99.90;;;;;;5106156;28;20150;-90
2021/10/12 06:39:30;;;;;;;37.83;17.60;;;9.90;99.90;;;;;;5113561;28;20024;-90
2021/10/12 06:41:55;;;;;;;41.10;17.88;;;9.90;99.90;;;;;;5106591;28;20020;-89
2021/10/12 06:44:21;;;;;;;41.45;17.30;;;9.90;99.90;;;;;;5099163;28;20024;-91
2021/10/12 06:46:46;;;;;;;40.47;17.70;;;9.90;99.90;;;;;;5101342;28;20012;-92
2021/10/12 06:49:12;;;;;;;39.38;17.10;;;9.80;99.90;;;;;;5098586;28;20040;-91
2021/10/12 06:51:38;;;;;;;37.70;17.23;;;9.90;99.90;;;;;;5093142;28;20035;-89
2021/10/12 06:54:04;;;;;;;41.40;17.95;;;9.90;99.90;;;;;;5101413;28;20036;-88
2021/10/12 06:56:31;;;;;;;38.88;17.17;;;9.90;99.90;;;;;;5107724;28;20023;-88
2021/10/12 06:58:57;;;;;;;40.05;18.02;;;9.90;99.90;;;;;;5111849;28;20127;-88
2021/10/12 07:01:23;;;;;;;45.53;18.80;;;9.90;99.90;;;;;;5093322;28;20060;-90
2021/10/12 07:03:48;;;;;;;38.80;17.08;;;9.90;99.90;;;;;;5094881;28;20032;-96
2021/10/12 07:06:14;;;;;;;39.72;16.98;;;10.00;99.90;;;;;;5102684;28;20436;-96
2021/10/12 07:08:39;;;;;;;35.88;16.85;;;10.00;99.90;;;;;;5104073;28;20460;-89
2021/10/12 07:11:05;;;;;;;34.25;16.05;;;10.00;99.90;;;;;;5107868;28;20024;-92
2021/10/12 07:13:31;;;;;;;33.58;15.57;;;10.00;99.90;;;;;;5093932;28;20028;-91
2021/10/12 07:15:57;;;;;;;32.35;16.33;;;10.00;99.90;;;;;;5100754;28;20020;-90
2021/10/12 07:18:23;;;;;;;31.80;16.45;;;10.00;99.90;;;;;;5093989;28;20036;-89
2021/10/12 07:20:49;;;;;;;37.33;15.55;;;10.10;99.90;;;;;;5096854;28;20020;-84
2021/10/12 07:23:17;;;;;;;31.63;14.98;;;10.00;99.90;;;;;;5104074;28;20028;-89
2021/10/12 07:25:43;;;;;;;31.63;15.23;;;10.10;99.90;;;;;;5094031;28;20032;-90
2021/10/12 07:28:08;;;;;;;35.58;15.23;;;10.10;99.90;;;;;;5089265;28;20024;-88
2021/10/12 07:30:34;;;;;;;36.25;17.10;;;10.20;99.90;;;;;;5093087;28;20530;-86
2021/10/12 07:33:00;;;;;;;33.33;14.07;;;10.20;99.90;;;;;;5100356;28;20024;-88
2021/10/12 07:35:25;;;;;;;30.80;15.23;;;10.20;99.90;;;;;;5093092;28;20086;-86
2021/10/12 07:37:51;;;;;;;31.55;14.55;;;10.20;99.90;;;;;;5090238;28;20078;-85
2021/10/12 07:40:17;;;;;;;28.77;13.98;;;10.20;99.90;;;;;;5094109;28;20061;-87
2021/10/12 07:42:42;;;;;;;37.53;16.05;;;10.30;99.90;;;;;;5093204;28;20361;-88
2021/10/12 07:45:08;;;;;;;34.50;14.52;;;10.30;99.90;;;;;;5092814;28;20093;-90
2021/10/12 07:47:34;;;;;;;34.42;14.73;;;10.30;99.90;;;;;;5093904;28;20025;-86
2021/10/12 07:50:01;;;;;;;30.00;14.52;;;10.40;99.90;;;;;;5092384;28;20035;-85
2021/10/12 07:52:29;;;;;;;30.02;13.93;;;10.40;99.90;;;;;;5097218;28;20024;-88
2021/10/12 07:55:26;;;;;;;33.65;14.77;;;10.50;99.90;;;;;;5096206;28;20016;-87
2021/10/12 07:57:40;;;;;;;29.70;13.70;;;10.50;99.90;;;;;;5097713;28;20044;-87
2021/10/12 08:00:09;;;;;;;27.90;13.68;;;10.60;99.90;;;;;;5097365;28;20081;-87
2021/10/12 08:02:34;;;;;;;25.83;14.32;;;10.60;99.90;;;;;;5097659;28;20035;-89
2021/10/12 08:05:00;;;;;;;28.30;12.73;;;10.70;99.90;;;;;;5106088;28;20031;-87
2021/10/12 08:07:26;;;;;;;24.65;13.48;;;10.80;99.90;;;;;;5097286;28;20040;-87
2021/10/12 08:09:51;;;;;;;27.05;12.82;;;10.80;99.90;;;;;;5097713;28;20025;-82
2021/10/12 08:12:17;;;;;;;27.35;12.13;;;10.80;99.90;;;;;;5081120;28;20028;-82
2021/10/12 08:14:47;;;;;;;28.48;11.65;;;10.90;99.90;;;;;;5095841;28;20028;-81
2021/10/12 08:17:12;;;;;;;24.13;11.80;;;10.90;99.90;;;;;;5095508;28;20039;-82
2021/10/12 08:19:38;;;;;;;22.65;11.10;;;10.90;99.90;;;;;;5098283;28;20423;-81
2021/10/12 08:22:04;;;;;;;28.67;12.88;;;11.00;99.90;;;;;;5095933;28;20024;-82
2021/10/12 08:24:30;;;;;;;24.40;11.60;;;11.00;99.90;;;;;;5097553;28;20035;-80
2021/10/12 08:26:56;;;;;;;24.80;12.05;;;11.00;99.90;;;;;;5093910;28;20024;-83
2021/10/12 08:29:22;;;;;;;28.90;11.77;;;11.00;99.90;;;;;;5096207;28;20487;-78
2021/10/12 08:31:47;;;;;;;23.25;11.52;;;11.00;99.90;;;;;;5096886;28;20028;-78
2021/10/12 08:34:16;;;;;;;27.77;11.90;;;11.00;99.90;;;;;;5096052;28;20039;-78
2021/10/12 08:36:41;;;;;;;20.38;11.27;;;11.00;99.90;;;;;;5096285;28;20036;-77
2021/10/12 08:39:08;;;;;;;24.58;11.52;;;11.00;99.90;;;;;;5094608;28;20042;-77
2021/10/12 08:41:56;;;;;;;27.35;12.95;;;11.00;99.90;;;;;;5095074;28;20028;-77
2021/10/12 08:44:21;;;;;;;23.35;11.63;;;11.00;99.90;;;;;;5095850;28;20046;-76
2021/10/12 08:46:48;;;;;;;22.63;12.10;;;11.00;99.90;;;;;;5097740;28;20465;-79
2021/10/12 08:49:14;;;;;;;21.48;10.80;;;11.00;99.90;;;;;;5102387;28;20039;-78
2021/10/12 08:51:46;;;;;;;28.23;11.75;;;11.10;99.90;;;;;;5097541;28;20051;-76
2021/10/12 08:54:12;;;;;;;;;;;11.10;99.90;;;;;;5093962;28;20031;-76
2021/10/12 08:56:38;;;;;;;22.67;10.52;;;11.10;99.90;;;;;;5094191;28;19924;-77
2021/10/12 08:59:04;;;;;;;26.50;11.27;;;11.10;99.90;;;;;;5095668;28;20039;-76
2021/10/12 09:01:31;;;;;;;23.25;10.98;;;11.10;99.90;;;;;;5098462;28;20528;-76
2021/10/12 09:06:32;;;;;;;23.05;10.90;;;11.20;99.90;;;;;;5077869;28;20033;-77
2021/10/12 09:09:06;;;;;;;21.52;10.55;;;11.20;99.90;;;;;;5093624;28;20028;-77
2021/10/12 09:11:34;;;;;;;19.27;10.13;;;11.20;99.90;;;;;;5091966;28;20107;-78
2021/10/12 09:14:04;;;;;;;18.58;10.32;;;11.20;99.90;;;;;;5098760;28;20026;-77
2021/10/12 09:16:37;;;;;;;24.05;10.98;;;11.20;99.90;;;;;;5115398;28;20353;-77
2021/10/12 09:19:08;;;;;;;19.20;9.85;;;11.20;99.90;;;;;;5111705;28;20550;-77
2021/10/12 09:21:48;;;;;;;21.00;10.25;;;11.20;99.90;;;;;;5131168;27;20119;-77
2021/10/12 09:24:17;;;;;;;21.02;10.80;;;11.20;99.90;;;;;;5104563;28;20302;-76
2021/10/12 09:26:52;;;;;;;22.73;11.15;;;11.20;99.90;;;;;;5105253;28;20104;-76
2021/10/12 09:29:24;;;;;;;22.30;9.90;;;11.20;99.90;;;;;;5127849;27;20080;-76
2021/10/12 09:31:53;;;;;;;20.25;10.48;;;11.20;99.90;;;;;;5097131;28;20047;-74
2021/10/12 09:34:19;;;;;;;15.35;9.55;;;11.20;99.90;;;;;;5104193;28;20027;-75
2021/10/12 09:36:47;;;;;;;21.23;8.88;;;11.30;99.90;;;;;;5093389;28;20031;-76
2021/10/12 09:39:15;;;;;;;16.48;8.88;;;11.30;99.90;;;;;;5111672;28;20043;-77
2021/10/12 09:41:55;;;;;;;21.23;9.57;;;11.30;99.90;;;;;;5100312;28;20020;-77
2021/10/12 09:44:21;;;;;;;18.55;9.45;;;11.40;99.90;;;;;;5098902;28;20043;-77
2021/10/12 09:46:49;;;;;;;18.70;9.35;;;11.50;99.90;;;;;;5093171;28;20031;-75
2021/10/12 09:49:23;;;;;;;16.50;8.43;;;11.50;99.80;;;;;;5095089;28;20035;-78
2021/10/12 09:52:00;;;;;;;19.40;9.68;;;11.60;99.70;;;;;;5132141;27;20460;-75
2021/10/12 09:54:37;;;;;;;19.30;8.90;;;11.60;99.60;;;;;;5093779;28;20118;-75
2021/10/12 09:57:05;;;;;;;18.45;8.95;;;11.70;99.20;;;;;;5094348;28;20051;-75
2021/10/12 09:59:32;;;;;;;18.35;8.50;;;11.70;99.30;;;;;;5097222;28;20024;-77
2021/10/12 10:01:59;;;;;;;18.63;8.45;;;11.80;99.30;;;;;;5127532;27;20115;-76
2021/10/12 10:04:27;;;;;;;17.48;7.97;;;11.90;99.30;;;;;;5093233;28;20032;-76
2021/10/12 10:07:04;;;;;;;13.60;7.47;;;12.00;99.10;;;;;;5103600;28;20093;-77
2021/10/12 10:09:31;;;;;;;14.65;8.05;;;11.90;98.70;;;;;;5107399;28;20020;-76
2021/10/12 10:11:58;;;;;;;13.02;7.78;;;12.00;98.70;;;;;;5092504;28;20034;-76
2021/10/12 10:14:25;;;;;;;14.35;7.13;;;11.90;98.70;;;;;;5101332;28;20036;-76
2021/10/12 10:16:58;;;;;;;14.85;8.45;;;12.00;98.90;;;;;;5100032;28;20036;-79
2021/10/12 10:19:29;;;;;;;14.75;7.72;;;12.00;98.80;;;;;;5109694;28;20040;-86
2021/10/12 10:21:55;;;;;;;13.50;7.18;;;11.90;98.80;;;;;;5103709;28;20052;-89
2021/10/12 10:24:41;;;;;;;17.98;7.93;;;11.90;99.10;;;;;;5104067;28;20042;-79
2021/10/12 10:27:07;;;;;;;14.23;7.95;;;12.00;99.20;;;;;;5093653;28;20016;-80
2021/10/12 10:29:37;;;;;;;16.13;7.00;;;12.00;98.60;;;;;;5102091;28;20115;-79
2021/10/12 10:32:15;;;;;;;13.55;7.20;;;12.00;98.80;;;;;;5098659;28;20468;-78
2021/10/12 10:34:43;;;;;;;13.45;7.32;;;11.90;98.60;;;;;;5140402;27;20075;-90
2021/10/12 10:37:18;;;;;;;15.32;7.57;;;11.90;98.90;;;;;;5109234;28;20104;-89
2021/10/12 10:39:49;;;;;;;17.08;8.18;;;12.00;98.80;;;;;;5113845;27;20020;-77
2021/10/12 10:42:27;;;;;;;13.70;8.07;;;12.00;98.90;;;;;;5126006;27;20028;-77
2021/10/12 10:45:01;;;;;;;13.85;7.75;;;12.00;98.80;;;;;;5102336;28;20276;-76
2021/10/12 10:47:42;;;;;;;13.50;7.57;;;12.00;98.70;;;;;;5090650;28;20036;-77
2021/10/12 10:50:15;;;;;;;14.75;7.65;;;12.10;98.60;;;;;;5093518;28;20052;-79
2021/10/12 10:52:52;;;;;;;16.67;7.93;;;12.30;98.50;;;;;;5098871;28;20023;-80
2021/10/12 10:55:33;;;;;;;19.40;7.93;;;12.40;98.10;;;;;;5098190;28;20024;-79
2021/10/12 10:58:06;;;;;;;16.52;8.10;;;12.50;97.60;;;;;;5099554;28;20437;-80
2021/10/12 11:00:51;;;;;;;13.68;7.85;;;12.40;97.60;;;;;;5098256;28;20032;-84
2021/10/12 11:03:35;;;;;;;16.35;7.53;;;12.40;97.60;;;;;;5135612;27;20019;-81
2021/10/12 11:06:03;;;;;;;18.83;8.73;;;12.40;97.70;;;;;;5098305;28;20036;-87
2021/10/12 11:08:32;;;;;;;14.57;8.00;;;12.50;97.70;;;;;;5100327;28;20031;-81
2021/10/12 11:11:09;;;;;;;15.60;8.02;;;12.50;97.60;;;;;;5095654;28;20465;-79
2021/10/12 11:13:43;;;;;;;17.83;7.68;;;12.50;97.90;;;;;;5093935;28;20031;-83
2021/10/12 11:16:11;;;;;;;15.98;8.38;;;12.60;97.80;;;;;;5126342;27;20036;-81
2021/10/12 11:18:38;;;;;;;13.60;8.35;;;12.70;97.90;;;;;;5096031;28;20028;-80
2021/10/12 11:21:07;;;;;;;14.05;7.40;;;12.70;97.80;;;;;;5096160;28;20082;-81
2021/10/12 11:23:38;;;;;;;15.57;7.75;;;12.80;97.60;;;;;;5104081;28;20110;-80
2021/10/12 11:26:11;;;;;;;17.67;8.07;;;12.90;97.50;;;;;;5108024;28;20028;-81
2021/10/12 11:28:39;;;;;;;16.55;8.48;;;12.90;97.20;;;;;;5098920;28;20035;-80
2021/10/12 11:31:10;;;;;;;14.13;7.50;;;12.90;97.20;;;;;;5102929;28;20060;-80
2021/10/12 11:33:43;;;;;;;13.32;7.15;;;12.90;97.40;;;;;;5115394;28;20130;-80
2021/10/12 11:36:10;;;;;;;16.48;7.82;;;13.00;97.30;;;;;;5113498;28;20035;-80
2021/10/12 11:38:50;;;;;;;14.60;8.00;;;13.00;96.90;;;;;;5112494;27;20027;-81
2021/10/12 11:41:24;;;;;;;13.18;7.65;;;12.90;96.90;;;;;;5103968;28;20111;-81
2021/10/12 11:43:52;;;;;;;12.88;7.47;;;13.00;97.10;;;;;;5103659;28;20388;-79
2021/10/12 11:46:35;;;;;;;11.32;7.20;;;13.10;96.90;;;;;;5109419;28;20332;-81
2021/10/12 11:49:11;;;;;;;13.63;6.45;;;13.10;95.90;;;;;;5146719;27;20054;-82
2021/10/12 11:51:39;;;;;;;11.73;5.95;;;13.10;95.80;;;;;;5116858;28;20023;-80
2021/10/12 11:54:05;;;;;;;13.65;6.82;;;13.20;95.80;;;;;;5144978;27;20020;-81
2021/10/12 11:56:36;;;;;;;13.73;7.05;;;13.40;95.90;;;;;;5142336;27;20040;-80
2021/10/12 11:59:04;;;;;;;13.47;6.03;;;13.50;95.60;;;;;;5113524;27;20040;-81
2021/10/12 12:01:37;;;;;;;11.80;5.10;;;13.50;94.90;;;;;;5118860;28;20029;-81
2021/10/12 12:04:05;;;;;;;11.32;6.38;;;13.60;94.80;;;;;;5117375;28;20147;-81
2021/10/12 12:06:34;;;;;;;13.70;5.45;;;13.70;94.90;;;;;;5107812;28;20063;-81
2021/10/12 12:09:03;;;;;;;10.13;5.45;;;13.80;94.70;;;;;;5113598;27;20027;-81
2021/10/12 12:11:31;;;;;;;9.43;4.70;;;13.80;94.70;;;;;;5107328;28;20039;-80
2021/10/12 12:13:58;;;;;;;9.10;4.50;;;13.70;93.60;;;;;;5108867;28;20111;-83
2021/10/12 12:16:25;;;;;;;11.75;4.57;;;13.60;93.70;;;;;;5151480;27;20107;-80
2021/10/12 12:18:51;;;;;;;9.55;4.50;;;13.60;94.20;;;;;;5113178;28;20552;-79
2021/10/12 12:21:32;;;;;;;9.32;4.80;;;13.50;94.20;;;;;;5106399;28;20142;-86
2021/10/12 12:24:00;;;;;;;12.05;5.13;;;13.40;94.70;;;;;;5104473;28;20453;-89
2021/10/12 12:26:28;;;;;;;10.57;5.25;;;13.40;95.10;;;;;;5101931;28;20495;-82
2021/10/12 12:29:17;;;;;;;11.68;4.65;;;13.30;95.00;;;;;;5135117;27;20028;-80
2021/10/12 12:31:53;;;;;;;9.82;4.30;;;13.30;94.60;;;;;;5099949;28;20020;-82
2021/10/12 12:34:35;;;;;;;10.05;4.03;;;13.30;94.80;;;;;;5097762;28;20132;-82
2021/10/12 12:37:02;;;;;;;14.80;4.10;;;13.30;94.30;;;;;;5112351;28;20031;-83
2021/10/12 12:39:42;;;;;;;13.10;5.15;;;13.30;94.20;;;;;;5104853;28;20069;-84
2021/10/12 12:42:31;;;;;;;9.80;5.53;;;13.20;94.30;;;;;;5105440;28;20127;-89